Time;durP1;ratioP1;P1;durP2;ratioP2;P2;SDS_P1;SDS_P2;PMS_P1;PMS_P2;Temp;Humidity;BMP_temperature;BMP_pressure;BME280_temperature;BME280_humidity;BME280_pressure;Samples;Min_cycle;Max_cycle;Signal;HPM_P1;HPM_P2
2023/06/16 00:01:14;;;;;;;10.35;7.80;;;;;;;18.20;100.00;100777.31;4970328;28;20030;-80
2023/06/16 00:03:41;;;;;;;10.63;6.80;;;;;;;18.10;100.00;100779.44;4988169;28;20518;-80
2023/06/16 00:06:19;;;;;;;13.38;6.60;;;;;;;18.09;100.00;100780.47;4971736;28;20045;-79
2023/06/16 00:08:47;;;;;;;8.13;6.00;;;;;;;18.09;100.00;100775.13;4972696;28;20049;-79
2023/06/16 00:11:17;;;;;;;8.25;5.72;;;;;;;18.07;100.00;100780.66;4969599;28;20073;-80
2023/06/16 00:13:47;;;;;;;6.43;5.30;;;;;;;18.01;100.00;100773.38;4993410;28;20739;-80
2023/06/16 00:16:14;;;;;;;6.68;5.63;;;;;;;17.96;100.00;100773.09;4994748;28;20039;-80
2023/06/16 00:18:43;;;;;;;8.65;5.32;;;;;;;17.94;100.00;100765.25;4981287;28;20404;-81
2023/06/16 00:21:10;;;;;;;6.82;5.57;;;;;;;18.01;100.00;100762.69;5004297;28;20076;-80
2023/06/16 00:23:36;;;;;;;7.38;5.05;;;;;;;18.02;100.00;100755.47;4956328;28;20027;-81
2023/06/16 00:26:02;;;;;;;8.20;4.50;;;;;;;18.03;100.00;100759.81;4987955;28;20042;-81
2023/06/16 00:28:28;;;;;;;6.95;4.90;;;;;;;17.99;100.00;100756.69;4985651;28;20034;-80
2023/06/16 00:30:55;;;;;;;5.03;4.10;;;;;;;17.91;100.00;100751.44;4990293;28;20030;-80
2023/06/16 00:33:20;;;;;;;4.80;4.32;;;;;;;17.90;100.00;100755.13;4999994;28;20042;-82
2023/06/16 00:35:47;;;;;;;12.10;4.53;;;;;;;17.91;100.00;100754.09;4984921;28;20030;-81
2023/06/16 00:38:13;;;;;;;7.45;4.20;;;;;;;17.92;100.00;100751.25;4983565;28;20066;-80
2023/06/16 00:40:39;;;;;;;9.25;5.70;;;;;;;17.93;100.00;100758.22;4971193;28;20034;-79
2023/06/16 00:43:05;;;;;;;4.40;4.00;;;;;;;17.93;100.00;100750.22;4992739;28;20042;-79
2023/06/16 00:45:31;;;;;;;6.57;4.32;;;;;;;17.90;100.00;100758.59;4987966;28;20054;-80
2023/06/16 00:47:58;;;;;;;5.38;4.40;;;;;;;17.84;100.00;100754.00;4969842;28;20038;-79
2023/06/16 00:50:25;;;;;;;6.32;4.55;;;;;;;17.75;100.00;100753.28;4960268;28;20043;-80
2023/06/16 00:52:52;;;;;;;5.10;3.95;;;;;;;17.74;100.00;100751.63;4982525;28;20695;-79
2023/06/16 00:55:21;;;;;;;6.82;3.78;;;;;;;17.71;100.00;100750.13;4971999;28;20046;-79
2023/06/16 00:57:50;;;;;;;5.07;3.78;;;;;;;17.61;100.00;100746.91;4992651;28;20038;-79
2023/06/16 01:00:17;;;;;;;5.15;3.78;;;;;;;17.55;100.00;100753.00;4991966;28;20428;-79
2023/06/16 01:02:46;;;;;;;6.35;4.40;;;;;;;17.50;100.00;100748.22;4989071;28;20031;-81
2023/06/16 01:05:17;;;;;;;7.55;4.18;;;;;;;17.54;100.00;100740.63;4985642;28;20037;-81
2023/06/16 01:08:09;;;;;;;5.47;3.97;;;;;;;17.51;100.00;100733.81;5006245;28;20503;-80
2023/06/16 01:10:54;;;;;;;6.63;4.10;;;;;;;17.46;100.00;100731.69;4990758;28;20042;-80
2023/06/16 01:13:34;;;;;;;4.53;4.05;;;;;;;17.51;100.00;100741.00;5003441;28;20089;-79
2023/06/16 01:16:03;;;;;;;9.02;5.05;;;;;;;17.51;100.00;100741.84;4994550;28;20400;-79
2023/06/16 01:18:32;;;;;;;6.65;4.40;;;;;;;17.53;100.00;100742.50;4974132;28;20037;-80
2023/06/16 01:21:16;;;;;;;5.38;4.22;;;;;;;17.54;100.00;100733.47;5002930;28;20037;-80
2023/06/16 01:24:09;;;;;;;4.68;4.22;;;;;;;17.55;100.00;100731.63;4994839;28;20026;-79
2023/06/16 01:26:46;;;;;;;6.30;4.20;;;;;;;17.41;100.00;100718.06;4975106;28;20385;-79
2023/06/16 01:29:13;;;;;;;5.65;4.15;;;;;;;17.19;100.00;100728.63;5009746;28;20045;-80
2023/06/16 01:31:41;;;;;;;5.80;4.72;;;;;;;17.13;100.00;100725.84;4992026;28;20037;-78
2023/06/16 01:34:09;;;;;;;7.18;4.53;;;;;;;17.07;100.00;100722.03;5003218;28;20038;-80
2023/06/16 01:36:41;;;;;;;8.05;5.57;;;;;;;17.00;100.00;100721.91;4979684;28;20034;-80
2023/06/16 01:39:11;;;;;;;6.30;4.72;;;;;;;16.85;100.00;100721.88;4982513;28;20412;-80
2023/06/16 01:41:38;;;;;;;6.60;4.57;;;;;;;16.77;100.00;100724.63;4992952;28;20472;-79
2023/06/16 01:44:05;;;;;;;5.80;4.60;;;;;;;16.77;100.00;100728.09;5000488;28;20115;-82
2023/06/16 01:46:32;;;;;;;5.70;4.60;;;;;;;16.84;100.00;100726.38;4977855;28;20037;-80
2023/06/16 01:48:58;;;;;;;5.15;4.65;;;;;;;16.90;100.00;100718.69;4993329;28;20092;-81
2023/06/16 01:51:25;;;;;;;5.13;4.55;;;;;;;16.91;100.00;100723.84;4994444;28;20536;-81
2023/06/16 01:53:54;;;;;;;8.82;4.78;;;;;;;16.87;100.00;100717.19;4968483;28;20125;-79
2023/06/16 01:56:20;;;;;;;7.72;5.00;;;;;;;16.82;100.00;100714.22;5001584;28;20088;-78
2023/06/16 01:58:45;;;;;;;8.05;5.75;;;;;;;16.81;100.00;100724.09;4991148;28;20546;-80
2023/06/16 02:01:29;;;;;;;11.10;5.75;;;;;;;16.89;100.00;100709.84;5000481;28;20034;-79
2023/06/16 02:04:17;;;;;;;5.90;4.65;;;;;;;16.93;100.00;100719.13;4990275;28;20125;-79
2023/06/16 02:06:45;;;;;;;6.80;5.50;;;;;;;16.97;100.00;100715.09;4969483;28;20481;-79
2023/06/16 02:09:13;;;;;;;6.32;5.00;;;;;;;17.03;100.00;100713.53;4985995;28;20492;-80
2023/06/16 02:11:40;;;;;;;5.57;4.53;;;;;;;17.09;100.00;100712.00;4976512;28;20512;-79
2023/06/16 02:14:07;;;;;;;8.73;5.55;;;;;;;17.15;100.00;100716.66;4996430;28;20038;-80
2023/06/16 02:16:42;;;;;;;8.05;4.75;;;;;;;17.11;100.00;100716.19;4962635;28;20419;-80
2023/06/16 02:19:12;;;;;;;6.50;4.75;;;;;;;17.10;100.00;100719.84;4986624;28;20091;-79
2023/06/16 02:21:41;;;;;;;7.68;4.95;;;;;;;17.15;100.00;100722.00;4959949;28;20049;-80
2023/06/16 02:24:08;;;;;;;8.80;4.88;;;;;;;17.15;100.00;100721.16;4973303;28;20073;-82
2023/06/16 02:26:35;;;;;;;5.82;4.32;;;;;;;17.18;100.00;100713.63;4985757;28;20499;-82
2023/06/16 02:29:01;;;;;;;6.63;4.85;;;;;;;17.18;100.00;100713.63;4975384;28;20492;-80
2023/06/16 02:31:27;;;;;;;5.72;5.13;;;;;;;17.14;100.00;100693.59;4980534;28;20034;-79
2023/06/16 02:33:55;;;;;;;6.68;5.15;;;;;;;17.13;100.00;100704.47;4985724;28;20046;-79
2023/06/16 02:36:21;;;;;;;5.43;4.93;;;;;;;17.06;100.00;100702.50;4980480;28;20077;-79
2023/06/16 02:38:48;;;;;;;5.75;4.93;;;;;;;17.05;100.00;100706.19;4976124;28;20118;-79
2023/06/16 02:41:14;;;;;;;6.55;4.63;;;;;;;17.09;100.00;100706.66;4975484;28;20066;-79
2023/06/16 02:43:40;;;;;;;8.68;5.05;;;;;;;17.15;100.00;100699.78;4967432;28;20030;-80
2023/06/16 02:46:06;;;;;;;5.45;4.88;;;;;;;17.08;100.00;100700.53;4992391;28;20088;-79
2023/06/16 02:48:33;;;;;;;7.80;5.28;;;;;;;17.03;100.00;100697.53;4961563;28;20492;-81
2023/06/16 02:50:59;;;;;;;6.95;5.10;;;;;;;17.00;100.00;100697.88;4972160;28;20520;-82
2023/06/16 02:53:25;;;;;;;6.25;5.10;;;;;;;16.95;100.00;100700.25;4989652;28;20100;-81
2023/06/16 02:55:52;;;;;;;5.25;4.75;;;;;;;16.88;100.00;100691.31;4997022;28;20049;-82
2023/06/16 02:58:20;;;;;;;7.13;5.00;;;;;;;16.87;100.00;100690.47;4973872;28;20033;-79
2023/06/16 03:00:46;;;;;;;6.95;4.63;;;;;;;16.89;100.00;100696.47;4989881;28;20037;-80
2023/06/16 03:03:16;;;;;;;5.20;4.70;;;;;;;16.89;100.00;100696.47;4978117;28;20470;-80
2023/06/16 03:05:46;;;;;;;6.22;5.55;;;;;;;16.91;100.00;100707.81;4989788;28;20548;-79
2023/06/16 03:08:13;;;;;;;6.68;5.60;;;;;;;16.93;100.00;100700.44;4990353;28;20038;-79
2023/06/16 03:10:39;;;;;;;10.27;6.88;;;;;;;16.93;100.00;100702.31;4964555;28;20022;-79
2023/06/16 03:13:08;;;;;;;8.45;7.10;;;;;;;16.82;100.00;100699.03;4977758;28;20113;-80
2023/06/16 03:15:36;;;;;;;8.95;7.70;;;;;;;16.76;100.00;100691.75;4961345;28;20030;-79
2023/06/16 03:18:03;;;;;;;9.90;8.15;;;;;;;16.67;100.00;100693.66;4991673;28;20443;-79
2023/06/16 03:20:29;;;;;;;25.83;8.35;;;;;;;16.58;100.00;100684.88;4973665;28;20034;-79
2023/06/16 03:23:02;;;;;;;25.98;8.50;;;;;;;16.49;100.00;100685.94;4958613;28;20133;-79
2023/06/16 03:25:33;;;;;;;15.02;8.50;;;;;;;16.41;100.00;100689.50;5005611;28;20073;-79
2023/06/16 03:28:00;;;;;;;11.77;8.52;;;;;;;16.36;100.00;100681.19;4959807;28;20442;-79
2023/06/16 03:30:26;;;;;;;31.88;9.48;;;;;;;16.38;100.00;100681.84;4976353;28;20172;-79
2023/06/16 03:32:58;;;;;;;17.23;8.70;;;;;;;16.38;100.00;100676.53;4992622;28;20048;-81
2023/06/16 03:35:24;;;;;;;23.58;9.30;;;;;;;16.40;100.00;100684.34;4964110;28;20045;-80
2023/06/16 03:37:52;;;;;;;27.92;9.35;;;;;;;16.40;100.00;100685.19;4958671;28;20093;-79
2023/06/16 03:40:19;;;;;;;12.27;9.85;;;;;;;16.42;100.00;100685.81;4973671;28;20092;-80
2023/06/16 03:42:45;;;;;;;17.48;8.82;;;;;;;16.41;100.00;100681.50;4990314;28;20069;-80
2023/06/16 03:45:13;;;;;;;17.88;9.32;;;;;;;16.41;100.00;100686.84;4990622;28;20477;-78
2023/06/16 03:47:38;;;;;;;13.07;8.80;;;;;;;16.44;100.00;100683.81;4993101;28;20076;-78
2023/06/16 03:50:05;;;;;;;29.77;8.88;;;;;;;16.40;100.00;100684.34;4993550;28;20707;-79
2023/06/16 03:52:33;;;;;;;27.55;8.38;;;;;;;16.32;100.00;100688.75;4990310;28;20080;-79
2023/06/16 03:55:01;;;;;;;17.50;9.10;;;;;;;16.30;100.00;100685.41;4989202;28;20045;-79
2023/06/16 03:57:27;;;;;;;10.75;9.00;;;;;;;16.28;100.00;100683.91;5000608;28;20481;-79
2023/06/16 03:59:53;;;;;;;11.18;9.40;;;;;;;16.29;100.00;100691.75;4987527;28;20039;-78
2023/06/16 04:02:19;;;;;;;11.85;9.70;;;;;;;16.34;100.00;100693.91;4984603;28;20038;-79
2023/06/16 04:04:47;;;;;;;14.73;9.00;;;;;;;16.34;100.00;100694.72;4971981;28;20053;-79
2023/06/16 04:07:17;;;;;;;12.82;9.13;;;;;;;16.31;100.00;100697.72;4983844;28;20117;-82
2023/06/16 04:09:43;;;;;;;11.85;9.15;;;;;;;16.31;100.00;100703.06;4988456;28;20026;-81
2023/06/16 04:12:09;;;;;;;13.43;8.50;;;;;;;16.33;100.00;100692.22;4957525;28;20041;-79
2023/06/16 04:14:36;;;;;;;13.40;9.77;;;;;;;16.33;100.00;100695.72;4980051;28;20038;-79
2023/06/16 04:17:03;;;;;;;13.35;8.57;;;;;;;16.31;100.00;100688.91;4970622;28;20065;-79
2023/06/16 04:19:29;;;;;;;14.90;8.57;;;;;;;16.23;100.00;100695.09;4988650;28;20088;-78
2023/06/16 04:21:58;;;;;;;8.57;7.72;;;;;;;16.18;100.00;100689.47;4997061;28;20050;-79
2023/06/16 04:24:26;;;;;;;9.73;7.93;;;;;;;16.09;100.00;100692.19;4988036;28;20038;-79
2023/06/16 04:26:57;;;;;;;11.38;7.65;;;;;;;16.04;100.00;100689.22;4984469;28;20034;-80
2023/06/16 04:29:23;;;;;;;13.95;8.25;;;;;;;16.05;100.00;100693.56;4997070;28;20034;-79
2023/06/16 04:31:50;;;;;;;9.55;8.13;;;;;;;16.08;100.00;100681.69;4986367;28;20100;-79
2023/06/16 04:34:20;;;;;;;9.07;7.70;;;;;;;16.11;100.00;100676.84;4985017;28;20039;-79
2023/06/16 04:36:46;;;;;;;9.40;8.50;;;;;;;16.11;100.00;100681.34;4976277;28;20031;-79
2023/06/16 04:39:29;;;;;;;11.85;8.77;;;;;;;16.14;100.00;100674.81;4981524;28;20114;-79
2023/06/16 04:41:56;;;;;;;12.68;8.40;;;;;;;16.20;100.00;100669.63;4981796;28;20041;-78
2023/06/16 04:44:23;;;;;;;9.95;8.93;;;;;;;16.30;100.00;100669.41;4956396;28;20159;-79
2023/06/16 04:46:52;;;;;;;10.80;9.15;;;;;;;16.41;100.00;100662.81;4981547;28;20097;-79
2023/06/16 04:49:19;;;;;;;12.02;8.40;;;;;;;16.52;100.00;100671.41;4992975;28;20037;-79
2023/06/16 04:51:46;;;;;;;10.55;8.07;;;;;;;16.59;100.00;100661.69;4985755;28;20019;-80
2023/06/16 04:54:12;;;;;;;9.10;7.88;;;;;;;16.68;100.00;100660.63;4971910;28;20047;-79
2023/06/16 04:56:39;;;;;;;11.57;7.68;;;;;;;16.74;100.00;100649.22;5004352;28;20077;-79
2023/06/16 04:59:05;;;;;;;9.20;7.53;;;;;;;16.80;100.00;100645.00;4981746;28;20038;-80
2023/06/16 05:01:31;;;;;;;13.07;7.95;;;;;;;16.88;100.00;100643.28;4990404;28;20031;-79
2023/06/16 05:03:57;;;;;;;13.95;7.82;;;;;;;16.91;100.00;100630.41;5006600;28;20113;-78
2023/06/16 05:06:23;;;;;;;9.52;7.90;;;;;;;16.98;100.00;100633.16;4990019;28;20046;-79
2023/06/16 05:08:49;;;;;;;10.27;7.88;;;;;;;17.07;100.00;100634.72;4996985;28;20085;-81
2023/06/16 05:11:16;;;;;;;11.88;8.35;;;;;;;17.16;100.00;100648.03;4983516;28;20708;-81
2023/06/16 05:13:41;;;;;;;9.35;7.05;;;;;;;17.20;100.00;100639.47;4989757;28;20038;-81
2023/06/16 05:16:07;;;;;;;13.73;7.15;;;;;;;17.26;100.00;100651.28;4970893;28;20034;-82
2023/06/16 05:18:33;;;;;;;8.63;7.78;;;;;;;17.31;100.00;100642.69;4983833;28;20038;-79
2023/06/16 05:20:59;;;;;;;7.78;7.00;;;;;;;17.33;100.00;100652.19;4988038;28;20030;-79
2023/06/16 05:23:25;;;;;;;8.38;7.13;;;;;;;17.34;100.00;100643.16;4954904;28;20049;-82
2023/06/16 05:25:52;;;;;;;11.40;6.80;;;;;;;17.38;100.00;100646.28;4990248;28;20321;-81
2023/06/16 05:28:18;;;;;;;9.85;7.55;;;;;;;17.43;100.00;100653.75;4972129;28;20039;-78
2023/06/16 05:30:44;;;;;;;9.23;6.70;;;;;;;17.44;100.00;100650.88;4999930;28;20030;-79
2023/06/16 05:33:11;;;;;;;8.93;6.95;;;;;;;17.40;100.00;100649.59;4988677;28;20034;-80
2023/06/16 05:35:37;;;;;;;9.43;7.32;;;;;;;17.45;100.00;100651.72;4972041;28;20038;-79
2023/06/16 05:38:03;;;;;;;9.30;8.25;;;;;;;17.45;100.00;100652.56;4976767;28;20030;-79
2023/06/16 05:40:30;;;;;;;13.35;8.73;;;;;;;17.40;100.00;100643.44;4989205;28;20035;-79
2023/06/16 05:42:56;;;;;;;9.77;7.07;;;;;;;17.40;100.00;100644.25;4972618;28;20026;-79
2023/06/16 05:45:23;;;;;;;8.68;7.63;;;;;;;17.41;100.00;100643.25;4975175;28;20038;-79
2023/06/16 05:47:49;;;;;;;11.98;8.55;;;;;;;17.44;100.00;100650.06;4987108;28;20039;-79
2023/06/16 05:50:16;;;;;;;11.40;7.57;;;;;;;17.45;100.00;100652.56;4984839;28;20030;-80
2023/06/16 05:52:42;;;;;;;8.68;7.85;;;;;;;17.46;100.00;100640.84;4973386;28;20046;-79
2023/06/16 05:55:08;;;;;;;9.00;7.60;;;;;;;17.47;100.00;100645.16;5001891;28;20026;-79
2023/06/16 05:57:46;;;;;;;8.95;8.05;;;;;;;17.48;100.00;100640.66;4994108;28;20085;-81
2023/06/16 06:00:13;;;;;;;8.95;8.05;;;;;;;17.51;100.00;100644.78;4971329;28;20043;-82
2023/06/16 06:02:40;;;;;;;8.60;7.70;;;;;;;17.47;100.00;100644.34;4992846;28;20036;-79
2023/06/16 06:05:11;;;;;;;7.95;7.13;;;;;;;17.52;100.00;100649.16;4977745;28;20492;-79
2023/06/16 06:07:37;;;;;;;9.07;8.20;;;;;;;17.57;100.00;100652.06;4988657;28;20034;-79
2023/06/16 06:10:02;;;;;;;10.70;8.00;;;;;;;17.60;100.00;100654.38;4989574;28;20085;-78
2023/06/16 06:12:31;;;;;;;13.30;8.02;;;;;;;17.67;100.00;100652.63;4974665;28;20480;-79
2023/06/16 06:14:57;;;;;;;9.43;8.23;;;;;;;17.75;100.00;100653.53;4987279;28;20046;-79
2023/06/16 06:17:23;;;;;;;9.88;8.68;;;;;;;17.81;100.00;100642.91;4972928;28;20490;-78
2023/06/16 06:19:49;;;;;;;12.05;8.93;;;;;;;17.87;100.00;100645.88;4962053;28;20031;-79
2023/06/16 06:22:15;;;;;;;10.68;8.80;;;;;;;17.94;100.00;100649.44;4983405;28;20065;-79
2023/06/16 06:24:41;;;;;;;9.50;8.52;;;;;;;17.95;100.00;100651.91;4994818;28;20042;-79
2023/06/16 06:27:10;;;;;;;9.32;8.40;;;;;;;17.97;100.00;100652.56;4988497;28;20030;-80
2023/06/16 06:29:37;;;;;;;9.95;8.90;;;;;;;18.00;100.00;100646.00;4956597;28;20037;-80
2023/06/16 06:32:07;;;;;;;10.90;9.15;;;;;;;18.00;100.00;100647.88;4990191;28;20026;-80
2023/06/16 06:34:35;;;;;;;12.90;8.60;;;;;;;17.99;100.00;100647.03;4996643;28;20354;-80
2023/06/16 06:37:01;;;;;;;12.32;9.43;;;;;;;18.05;100.00;100643.59;4981258;28;20120;-79
2023/06/16 06:39:27;;;;;;;12.20;8.60;;;;;;;18.11;100.00;100647.34;4974145;28;20035;-80
2023/06/16 06:41:53;;;;;;;9.75;8.82;;;;;;;18.14;100.00;100651.53;4992165;28;20046;-79
2023/06/16 06:44:23;;;;;;;11.02;7.78;;;;;;;18.16;100.00;100646.81;4990652;28;20100;-80
2023/06/16 06:46:49;;;;;;;10.50;8.57;;;;;;;18.09;100.00;100644.06;4973905;28;20034;-80
2023/06/16 06:49:16;;;;;;;13.93;8.50;;;;;;;18.07;100.00;100652.28;4972339;28;20034;-79
2023/06/16 06:51:43;;;;;;;8.82;7.93;;;;;;;18.06;100.00;100647.91;4958264;28;20034;-79
2023/06/16 06:54:08;;;;;;;12.73;9.13;;;;;;;18.06;100.00;100642.56;4991138;28;20590;-79
2023/06/16 06:56:34;;;;;;;9.10;8.20;;;;;;;18.03;100.00;100640.28;4986139;28;20061;-78
2023/06/16 06:59:01;;;;;;;9.65;8.65;;;;;;;18.03;100.00;100647.50;4968146;28;20034;-80
2023/06/16 07:01:27;;;;;;;8.63;7.72;;;;;;;18.00;100.00;100648.69;4958628;28;20037;-78
2023/06/16 07:03:52;;;;;;;8.80;7.82;;;;;;;18.10;100.00;100646.53;4941936;28;20038;-81
2023/06/16 07:06:18;;;;;;;11.85;8.32;;;;;;;18.23;100.00;100647.72;4983067;28;20034;-80
2023/06/16 07:08:44;;;;;;;10.48;7.38;;;;;;;18.37;100.00;100635.31;4972973;28;20500;-80
2023/06/16 07:11:10;;;;;;;9.05;7.68;;;;;;;18.51;100.00;100643.44;4970458;28;20093;-80
2023/06/16 07:13:36;;;;;;;8.32;7.30;;;;;;;18.61;100.00;100646.63;4960045;28;20030;-81
2023/06/16 07:16:01;;;;;;;8.35;7.22;;;;;;;18.66;100.00;100649.56;4956502;28;20037;-80
2023/06/16 07:18:27;;;;;;;10.93;7.82;;;;;;;18.70;100.00;100658.84;4966647;28;20038;-80
2023/06/16 07:20:53;;;;;;;9.00;8.05;;;;;;;18.74;100.00;100653.94;4959059;28;20037;-79
2023/06/16 07:23:19;;;;;;;8.38;7.50;;;;;;;18.72;100.00;100650.63;4942849;28;20073;-80
2023/06/16 07:25:45;;;;;;;7.78;6.97;;;;;;;18.70;100.00;100647.31;4939472;28;20039;-80
2023/06/16 07:28:12;;;;;;;8.98;7.28;;;;;;;18.66;100.00;100643.38;4983315;28;20054;-80
2023/06/16 07:30:38;;;;;;;8.88;7.53;;;;;;;18.66;100.00;100646.88;4961979;28;20489;-80
2023/06/16 07:33:03;;;;;;;8.10;7.25;;;;;;;18.70;100.00;100644.63;4955423;28;20049;-81
2023/06/16 07:35:29;;;;;;;8.82;7.25;;;;;;;18.76;100.00;100651.88;4955247;28;20455;-81
2023/06/16 07:37:56;;;;;;;8.38;7.57;;;;;;;18.84;100.00;100656.28;4939794;28;20046;-80
2023/06/16 07:40:22;;;;;;;8.35;7.55;;;;;;;18.93;100.00;100656.97;4983871;28;20117;-80
2023/06/16 07:42:47;;;;;;;9.05;7.45;;;;;;;19.03;100.00;100653.94;4972302;28;20038;-84
2023/06/16 07:45:13;;;;;;;9.55;7.05;;;;;;;19.09;100.00;100655.88;4966120;28;20046;-83
2023/06/16 07:47:40;;;;;;;10.63;7.63;;;;;;;19.16;100.00;100650.56;4962168;28;20086;-80
2023/06/16 07:50:07;;;;;;;7.57;6.82;;;;;;;19.24;100.00;100658.44;4948029;28;20083;-81
2023/06/16 07:52:33;;;;;;;8.45;7.38;;;;;;;19.26;100.00;100656.38;4954716;28;20610;-82
2023/06/16 07:54:59;;;;;;;7.63;6.60;;;;;;;19.28;100.00;100653.50;4986961;28;20054;-79
2023/06/16 07:57:25;;;;;;;10.38;7.30;;;;;;;19.27;100.00;100649.19;4969350;28;20134;-81
2023/06/16 07:59:51;;;;;;;7.53;6.70;;;;;;;19.25;100.00;100654.75;4973165;28;20037;-81
2023/06/16 08:02:17;;;;;;;8.05;6.60;;;;;;;19.25;100.00;100652.06;4970096;28;20030;-83
2023/06/16 08:04:43;;;;;;;8.25;6.50;;;;;;;19.21;100.00;100646.25;4973761;28;20447;-82
2023/06/16 08:07:09;;;;;;;8.20;6.00;;;;;;;19.15;100.00;100641.69;4970825;28;20481;-80
2023/06/16 08:09:34;;;;;;;7.82;5.97;;;;;;;19.15;100.00;100649.72;4989134;28;20037;-79
2023/06/16 08:12:00;;;;;;;6.60;5.90;;;;;;;19.08;100.00;100646.13;4983021;28;20660;-81
2023/06/16 08:14:27;;;;;;;8.45;6.70;;;;;;;19.05;100.00;100639.31;4972993;28;20124;-82
2023/06/16 08:16:53;;;;;;;11.18;6.55;;;;;;;19.06;100.00;100650.88;4986674;28;20038;-80
2023/06/16 08:19:19;;;;;;;6.15;5.55;;;;;;;19.07;100.00;100644.50;5004292;28;20084;-80
2023/06/16 08:21:45;;;;;;;11.02;6.07;;;;;;;19.13;100.00;100643.72;4989955;28;20125;-80
2023/06/16 08:24:10;;;;;;;6.60;6.00;;;;;;;19.18;100.00;100641.31;4954852;28;20178;-79
2023/06/16 08:26:36;;;;;;;7.10;5.50;;;;;;;19.21;100.00;100637.38;4976646;28;20037;-78
2023/06/16 08:29:04;;;;;;;8.90;5.07;;;;;;;19.30;100.00;100632.72;4983484;28;20538;-82
2023/06/16 08:31:29;;;;;;;6.43;4.70;;;;;;;19.39;100.00;100630.69;5003003;28;20369;-80
2023/06/16 08:33:55;;;;;;;6.07;5.47;;;;;;;19.48;100.00;100631.38;4979843;28;20039;-79
2023/06/16 08:36:23;;;;;;;10.25;5.45;;;;;;;19.59;100.00;100628.94;4982530;28;20026;-79
2023/06/16 08:38:49;;;;;;;7.28;5.60;;;;;;;19.71;100.00;100639.06;4995413;28;20042;-81
2023/06/16 08:41:18;;;;;;;6.32;5.65;;;;;;;19.76;100.00;100633.94;4980370;28;20053;-80
2023/06/16 08:43:46;;;;;;;9.27;5.07;;;;;;;19.76;100.00;100633.94;4994385;28;20661;-79
2023/06/16 08:46:13;;;;;;;6.65;4.50;;;;;;;19.83;100.00;100632.09;4985218;28;20123;-80
2023/06/16 08:48:39;;;;;;;10.45;4.07;;;;;;;19.93;100.00;100637.09;4970867;28;20030;-81
2023/06/16 08:51:09;;;;;;;4.88;3.85;;;;;;;19.92;100.00;100632.72;4987871;28;20030;-79
2023/06/16 08:53:39;;;;;;;5.35;4.38;;;;;;;19.86;100.00;100632.75;4987409;28;20058;-78
2023/06/16 08:56:07;;;;;;;7.45;4.72;;;;;;;19.73;100.00;100636.19;4970075;28;20042;-81
2023/06/16 08:58:35;;;;;;;7.50;4.75;;;;;;;19.71;100.00;100636.41;4983048;28;20034;-80
2023/06/16 09:01:02;;;;;;;5.10;4.55;;;;;;;19.73;100.00;100634.34;4978874;28;20093;-81
2023/06/16 09:03:32;;;;;;;5.30;4.45;;;;;;;19.74;100.00;100636.00;4946963;28;20393;-83
2023/06/16 09:06:02;;;;;;;8.93;5.15;;;;;;;19.73;100.00;100628.16;4953718;28;20038;-82
2023/06/16 09:08:29;;;;;;;5.53;4.65;;;;;;;19.67;100.00;100632.47;4980800;28;20041;-80
2023/06/16 09:10:55;;;;;;;7.00;4.78;;;;;;;19.66;100.00;100636.16;4952773;28;20039;-80
2023/06/16 09:13:22;;;;;;;8.68;5.22;;;;;;;19.68;100.00;100639.47;4983636;28;20034;-80
2023/06/16 09:15:49;;;;;;;6.13;4.72;;;;;;;19.64;100.00;100635.53;4958696;28;20488;-79
2023/06/16 09:18:15;;;;;;;8.75;4.80;;;;;;;19.53;100.00;100624.38;4953280;28;20034;-81
2023/06/16 09:20:44;;;;;;;7.15;5.18;;;;;;;19.45;100.00;100629.88;5001365;28;20113;-81
2023/06/16 09:23:10;;;;;;;6.28;5.10;;;;;;;19.41;100.00;100625.97;4964980;28;20047;-81
2023/06/16 09:25:38;;;;;;;7.90;5.05;;;;;;;19.43;100.00;100629.28;4967934;28;20027;-79
2023/06/16 09:28:09;;;;;;;5.43;4.93;;;;;;;19.51;100.00;100628.28;4980229;28;20046;-82
2023/06/16 09:30:36;;;;;;;10.68;5.30;;;;;;;19.49;100.00;100617.75;4928681;28;20077;-82
2023/06/16 09:33:02;;;;;;;5.53;4.35;;;;;;;19.53;100.00;100618.16;4988832;28;20550;-80
2023/06/16 09:35:30;;;;;;;5.18;4.40;;;;;;;19.53;100.00;100624.38;4985937;28;20042;-80
2023/06/16 09:38:00;;;;;;;7.38;4.53;;;;;;;19.52;100.00;100616.53;4991215;28;20061;-80
2023/06/16 09:40:30;;;;;;;8.13;4.40;;;;;;;19.49;100.00;100619.59;4995613;28;20038;-81
2023/06/16 09:42:59;;;;;;;5.78;4.15;;;;;;;19.40;100.00;100617.09;4992234;28;20068;-82
2023/06/16 09:45:32;;;;;;;5.53;4.97;;;;;;;19.34;100.00;100609.84;4973273;28;20097;-83
2023/06/16 09:48:06;;;;;;;5.65;5.15;;;;;;;19.31;100.00;100610.25;4986745;28;20034;-80
2023/06/16 09:50:32;;;;;;;7.35;5.18;;;;;;;19.25;100.00;100616.41;4988136;28;20481;-81
2023/06/16 09:53:02;;;;;;;5.55;5.00;;;;;;;19.28;100.00;100613.31;4951463;28;20469;-85
2023/06/16 09:55:28;;;;;;;5.82;5.13;;;;;;;19.30;100.00;100612.09;4974938;28;20034;-81
2023/06/16 09:57:55;;;;;;;6.68;5.15;;;;;;;19.37;100.00;100620.16;4961931;28;20045;-79
2023/06/16 10:00:21;;;;;;;8.50;5.22;;;;;;;19.42;100.00;100619.56;4984798;28;20040;-79
2023/06/16 10:02:48;;;;;;;7.43;4.47;;;;;;;19.53;100.00;100623.53;4988985;28;20035;-80
2023/06/16 10:05:18;;;;;;;6.47;5.20;;;;;;;19.59;100.00;100620.03;4957567;28;20041;-79
2023/06/16 10:07:51;;;;;;;9.00;5.00;;;;;;;19.59;100.00;100620.03;4972124;28;20080;-79
2023/06/16 10:10:22;;;;;;;5.72;5.20;;;;;;;19.54;100.00;100619.84;4964688;28;20476;-80
2023/06/16 10:12:50;;;;;;;5.60;4.68;;;;;;;19.51;100.00;100621.03;4990197;28;20034;-81
2023/06/16 10:15:22;;;;;;;8.07;5.10;;;;;;;19.51;100.00;100620.25;4989201;28;20062;-80
2023/06/16 10:17:50;;;;;;;6.43;4.95;;;;;;;19.42;100.00;100612.34;4973116;28;20035;-81
2023/06/16 10:20:22;;;;;;;7.68;5.38;;;;;;;19.33;100.00;100602.84;4976749;28;20041;-78
2023/06/16 10:22:49;;;;;;;6.22;5.22;;;;;;;19.27;100.00;100609.00;5006852;28;20030;-79
2023/06/16 10:25:15;;;;;;;7.22;5.07;;;;;;;19.31;100.00;100615.59;4975604;28;20037;-80
2023/06/16 10:27:42;;;;;;;6.65;5.35;;;;;;;19.35;100.00;100616.84;4970764;28;20042;-79
2023/06/16 10:30:16;;;;;;;9.43;5.85;;;;;;;19.43;100.00;100622.03;4971062;28;20085;-81
2023/06/16 10:32:49;;;;;;;7.75;5.55;;;;;;;19.48;100.00;100615.28;4971067;28;20038;-81
2023/06/16 10:35:17;;;;;;;8.45;5.97;;;;;;;19.47;100.00;100622.47;5006497;28;20038;-82
2023/06/16 10:37:49;;;;;;;7.93;5.95;;;;;;;19.49;100.00;100616.91;4979124;28;20049;-80
2023/06/16 10:40:18;;;;;;;6.95;5.55;;;;;;;19.40;100.00;100617.09;4971027;28;20047;-79
2023/06/16 10:42:45;;;;;;;7.72;5.97;;;;;;;19.42;100.00;100616.88;4979759;28;20029;-80
2023/06/16 10:45:25;;;;;;;6.32;5.72;;;;;;;19.48;100.00;100620.63;4998189;28;20065;-80
2023/06/16 10:47:57;;;;;;;8.07;5.70;;;;;;;19.55;100.00;100619.63;4988334;28;20053;-80
2023/06/16 10:50:50;;;;;;;8.50;5.75;;;;;;;19.59;100.00;100620.88;4970068;28;20038;-80
2023/06/16 10:53:22;;;;;;;6.28;5.53;;;;;;;19.60;100.00;100621.72;4974294;28;20054;-81
2023/06/16 10:56:04;;;;;;;7.43;5.65;;;;;;;19.61;100.00;100622.53;4984088;28;20049;-79
2023/06/16 10:58:32;;;;;;;10.75;6.00;;;;;;;19.51;100.00;100620.25;4934245;28;20026;-80
2023/06/16 11:01:01;;;;;;;7.70;6.28;;;;;;;19.50;100.00;100619.41;4956750;28;20038;-79
2023/06/16 11:03:36;;;;;;;6.28;5.68;;;;;;;19.50;100.00;100622.09;4971379;28;20057;-79
2023/06/16 11:06:03;;;;;;;11.53;6.10;;;;;;;19.44;100.00;100613.00;4997156;28;20484;-79
2023/06/16 11:08:29;;;;;;;8.35;5.25;;;;;;;19.41;100.00;100607.19;4983827;28;20032;-81
2023/06/16 11:11:05;;;;;;;12.32;6.22;;;;;;;19.37;100.00;100609.44;4978815;28;20057;-81
2023/06/16 11:13:33;;;;;;;7.10;5.78;;;;;;;19.33;100.00;100605.50;4985758;28;20034;-79
2023/06/16 11:16:00;;;;;;;7.10;5.90;;;;;;;19.30;100.00;100613.97;4970673;28;20034;-79
2023/06/16 11:18:27;;;;;;;8.68;6.68;;;;;;;19.33;100.00;100618.91;4979711;28;20030;-79